createdAt,value
2019-04-21T11:09:44.604Z,3.92
2019-04-21T11:12:15.839Z,3.67
2019-04-21T11:14:47.863Z,3.55
2019-04-21T11:17:19.547Z,3.62
2019-04-21T11:19:50.747Z,3.47
2019-04-21T11:22:22.980Z,3.55
2019-04-21T11:24:56.693Z,3.93
2019-04-21T11:27:29.160Z,3.80
2019-04-21T11:30:00.316Z,3.65
2019-04-21T11:32:32.748Z,3.55
2019-04-21T11:35:05.321Z,3.52
2019-04-21T11:37:38.099Z,4.00
2019-04-21T11:40:14.028Z,3.80
2019-04-21T11:42:43.930Z,3.33
2019-04-21T11:45:36.633Z,3.60
2019-04-21T11:48:16.607Z,3.60
2019-04-21T11:50:48.842Z,3.83
2019-04-21T11:53:23.083Z,3.87
2019-04-21T11:55:58.628Z,3.50
2019-04-21T11:58:34.066Z,3.27
2019-04-21T12:01:07.540Z,3.22
2019-04-21T12:03:39.951Z,3.20
2019-04-21T12:06:11.507Z,3.17
2019-04-21T12:08:47.322Z,3.30
2019-04-21T12:11:15.877Z,3.30
2019-04-21T12:13:47.978Z,3.40
2019-04-21T12:16:19.304Z,3.10
2019-04-21T12:18:50.991Z,3.33
2019-04-21T12:21:23.436Z,3.30
2019-04-21T12:23:56.601Z,3.35
2019-04-21T12:26:28.324Z,3.05
2019-04-21T12:28:59.746Z,3.20
2019-04-21T12:31:39.274Z,3.25
2019-04-21T12:34:12.133Z,3.70
2019-04-21T12:36:43.760Z,3.30
2019-04-21T12:39:16.765Z,3.20
2019-04-21T12:41:48.888Z,3.20
2019-04-21T12:44:20.580Z,3.20
2019-04-21T12:46:51.981Z,3.00
2019-04-21T12:49:25.515Z,3.08
2019-04-21T12:51:57.693Z,2.80
2019-04-21T12:54:29.829Z,2.80
2019-04-21T12:57:01.289Z,2.80
2019-04-21T12:59:35.883Z,2.67
2019-04-21T13:02:09.713Z,2.60
2019-04-21T13:04:42.047Z,2.92
2019-04-21T13:07:13.456Z,3.02
2019-04-21T13:09:44.626Z,3.05
2019-04-21T13:12:15.767Z,2.85
2019-04-21T13:14:47.475Z,2.70
2019-04-21T13:17:19.473Z,3.10
2019-04-21T13:19:51.544Z,2.98
2019-04-21T13:22:23.711Z,3.10
2019-04-21T13:24:55.834Z,3.10
2019-04-21T13:27:27.247Z,2.83
2019-04-21T13:29:59.977Z,2.77
2019-04-21T13:32:31.279Z,3.08
2019-04-21T13:35:03.308Z,3.25
2019-04-21T13:37:35.315Z,3.12
2019-04-21T13:40:34.164Z,3.37
2019-04-21T13:42:54.754Z,3.40
2019-04-21T13:45:23.862Z,3.50
2019-04-21T13:47:56.632Z,3.50
2019-04-21T13:50:29.063Z,3.20
2019-04-21T13:53:00.664Z,3.37
2019-04-21T13:55:32.123Z,3.33
2019-04-21T13:58:04.305Z,3.70
2019-04-21T14:00:35.909Z,3.37
2019-04-21T14:03:07.234Z,3.10
2019-04-21T14:05:38.357Z,3.37
2019-04-21T14:08:11.187Z,3.77
2019-04-21T14:10:43.953Z,3.62
2019-04-21T14:13:16.474Z,3.75
2019-04-21T14:15:48.827Z,3.77
2019-04-21T14:18:20.746Z,3.60
2019-04-21T14:20:55.481Z,4.08
2019-04-21T14:23:34.495Z,3.62
2019-04-21T14:26:03.872Z,3.60
2019-04-21T14:28:38.897Z,3.80
2019-04-21T14:31:10.580Z,3.65
2019-04-21T14:33:41.820Z,3.65
2019-04-21T14:36:14.734Z,3.30
2019-04-21T14:38:46.932Z,3.67
2019-04-21T14:41:18.227Z,3.87
2019-04-21T14:43:50.158Z,3.60
2019-04-21T14:46:26.937Z,3.72
2019-04-21T14:49:03.620Z,3.72
2019-04-21T14:51:41.002Z,3.83
2019-04-21T14:54:15.175Z,3.80
2019-04-21T14:56:47.288Z,3.45
2019-04-21T14:59:19.641Z,3.80
2019-04-21T15:01:51.796Z,4.03
2019-04-21T15:04:26.268Z,3.67
2019-04-21T15:06:59.203Z,3.65
2019-04-21T15:09:31.482Z,3.90
2019-04-21T15:12:02.916Z,3.60
2019-04-21T15:14:34.016Z,3.63
2019-04-21T15:17:05.175Z,3.50
2019-04-21T15:19:36.419Z,3.92
2019-04-21T15:22:08.635Z,3.83
2019-04-21T15:24:40.404Z,3.60
2019-04-21T15:27:12.778Z,3.85
2019-04-21T15:29:44.868Z,3.83
2019-04-21T15:32:16.866Z,4.00
2019-04-21T15:34:48.355Z,3.83
2019-04-21T15:37:19.990Z,4.03
2019-04-21T15:39:52.997Z,3.98
2019-04-21T15:42:24.399Z,4.20
2019-04-21T15:44:56.789Z,3.87
2019-04-21T15:47:28.311Z,4.12
2019-04-21T15:50:06.594Z,4.12
2019-04-21T15:52:33.769Z,4.30
2019-04-21T15:55:14.783Z,4.55
2019-04-21T15:57:50.622Z,4.50
2019-04-21T16:00:24.575Z,4.05
2019-04-21T16:02:56.141Z,4.20
2019-04-21T16:05:28.505Z,3.72
2019-04-21T16:08:00.334Z,4.10
2019-04-21T16:10:43.012Z,4.65
2019-04-21T16:13:05.748Z,4.33
2019-04-21T16:15:38.401Z,4.05
2019-04-21T16:18:10.088Z,4.35
2019-04-21T16:20:41.875Z,4.10
2019-04-21T16:23:14.785Z,4.53
2019-04-21T16:25:46.593Z,4.45
2019-04-21T16:28:17.810Z,4.72
2019-04-21T16:30:48.940Z,4.63
2019-04-21T16:33:21.005Z,4.97
2019-04-21T16:35:53.672Z,5.83
2019-04-21T16:38:25.833Z,5.10
2019-04-21T16:41:01.076Z,5.17
2019-04-21T16:43:31.131Z,5.35
2019-04-21T16:46:02.441Z,5.55
2019-04-21T16:48:33.845Z,5.10
2019-04-21T16:51:05.727Z,4.90
2019-04-21T16:53:41.845Z,5.10
2019-04-21T16:56:15.303Z,5.12
2019-04-21T16:58:48.518Z,5.30
2019-04-21T17:01:25.704Z,4.90
2019-04-21T17:03:58.268Z,5.60
2019-04-21T17:06:31.050Z,5.00
2019-04-21T17:09:03.003Z,5.03
2019-04-21T17:11:39.221Z,4.70
2019-04-21T17:16:24.409Z,5.45
2019-04-21T17:17:03.231Z,5.95
2019-04-21T17:19:21.940Z,6.37
2019-04-21T17:21:47.909Z,7.30
2019-04-21T17:24:20.170Z,6.83
2019-04-21T17:26:51.577Z,7.03
2019-04-21T17:29:22.862Z,7.17
2019-04-21T17:31:55.277Z,7.20
2019-04-21T17:34:28.844Z,6.73
2019-04-21T17:37:01.014Z,7.20
2019-04-21T17:39:32.671Z,6.83
2019-04-21T17:42:16.770Z,6.43
2019-04-21T17:44:37.361Z,6.00
2019-04-21T17:47:21.793Z,6.28
2019-04-21T17:49:43.158Z,6.15
2019-04-21T17:52:40.161Z,6.08
2019-04-21T17:55:16.851Z,5.90
2019-04-21T17:58:00.850Z,6.22
2019-04-21T18:00:57.797Z,6.65
2019-04-21T18:03:18.346Z,6.47
2019-04-21T18:05:43.545Z,6.28
2019-04-21T18:08:21.447Z,6.20
2019-04-21T18:10:45.791Z,6.22
2019-04-21T18:13:08.594Z,5.75
2019-04-21T18:15:52.377Z,5.97
2019-04-21T18:18:10.326Z,6.45
2019-04-21T18:20:53.716Z,6.12
2019-04-21T18:23:39.497Z,5.93
2019-04-21T18:26:07.471Z,5.72
2019-04-21T18:28:32.806Z,6.03
2019-04-21T18:31:12.319Z,5.80
2019-04-21T18:33:46.185Z,6.33
2019-04-21T18:36:29.277Z,6.27
2019-04-21T18:39:12.308Z,7.30
2019-04-21T18:41:34.469Z,6.85
2019-04-21T18:44:34.501Z,6.83
2019-04-21T18:47:20.011Z,6.53
2019-04-21T18:49:44.080Z,6.50
2019-04-21T18:52:26.918Z,6.30
2019-04-21T18:55:08.087Z,6.60
2019-04-21T18:57:34.475Z,6.22
2019-04-21T18:59:57.598Z,6.15
2019-04-21T19:02:38.409Z,5.75
2019-04-21T19:05:09.885Z,6.47
2019-04-21T19:07:58.315Z,6.05
2019-04-21T19:10:42.556Z,6.58
2019-04-21T19:15:30.010Z,7.30
2019-04-21T19:20:39.447Z,7.47
2019-04-21T19:23:11.647Z,8.08
2019-04-21T19:25:47.412Z,7.67
2019-04-21T19:28:16.413Z,7.35
2019-04-21T19:31:05.145Z,9.68
2019-04-21T19:33:18.759Z,10.83
2019-04-21T19:35:39.352Z,11.90
2019-04-21T19:38:13.798Z,12.80
2019-04-21T19:40:56.516Z,13.25
2019-04-21T19:43:41.644Z,11.75
2019-04-21T19:46:11.597Z,11.40
2019-04-21T19:48:44.694Z,10.70
2019-04-21T19:51:10.570Z,10.23
2019-04-21T19:53:42.146Z,10.10
2019-04-21T19:56:01.962Z,11.18
2019-04-21T19:58:38.168Z,11.57
2019-04-21T20:01:07.600Z,11.22
2019-04-21T20:03:43.181Z,11.30
2019-04-21T20:06:28.807Z,11.10
2019-04-21T20:09:07.017Z,12.63
2019-04-21T20:11:33.552Z,11.95
2019-04-21T20:14:37.668Z,11.97
2019-04-21T20:16:44.347Z,11.83
2019-04-21T20:19:03.006Z,11.80
2019-04-21T20:21:31.133Z,11.25
2019-04-21T20:24:09.686Z,11.90
2019-04-21T20:26:41.617Z,12.30
2019-04-21T20:29:27.702Z,11.75
2019-04-21T20:31:55.111Z,11.25
2019-04-21T20:34:33.609Z,10.85
2019-04-21T20:37:07.722Z,10.18
2019-04-21T20:39:24.188Z,9.87
2019-04-21T20:42:08.646Z,10.23
2019-04-21T20:44:43.801Z,10.20
2019-04-21T20:47:11.289Z,10.18
2019-04-21T20:49:41.490Z,10.47
2019-04-21T20:52:30.706Z,10.20
2019-04-21T20:54:59.031Z,9.45
2019-04-21T20:57:26.402Z,8.70
2019-04-21T21:00:03.413Z,8.95
2019-04-21T21:02:41.172Z,9.30
2019-04-21T21:04:59.010Z,8.80
2019-04-21T21:07:44.105Z,8.80
2019-04-21T21:10:10.961Z,8.78
2019-04-21T21:12:49.087Z,8.58
2019-04-21T21:15:11.397Z,9.18
2019-04-21T21:18:01.422Z,8.60
2019-04-21T21:20:24.639Z,9.13
2019-04-21T21:22:50.611Z,8.60
2019-04-21T21:25:41.856Z,8.67
2019-04-21T21:27:57.192Z,9.70
2019-04-21T21:30:32.350Z,9.30
2019-04-21T21:33:15.367Z,9.58
2019-04-21T21:35:38.324Z,8.68
2019-04-21T21:38:23.994Z,8.93
2019-04-21T21:40:45.580Z,8.95
2019-04-21T21:43:09.246Z,9.43
2019-04-21T21:45:42.356Z,9.17
2019-04-21T21:48:26.402Z,8.60
2019-04-21T21:50:54.267Z,8.25
2019-04-21T21:53:21.557Z,8.95
2019-04-21T21:55:49.108Z,7.78
2019-04-21T21:58:26.455Z,7.03
2019-04-21T22:00:58.415Z,7.22
2019-04-21T22:03:33.530Z,6.80
2019-04-21T22:06:06.231Z,7.22
2019-04-21T22:08:34.375Z,7.15
2019-04-21T22:11:07.209Z,7.35
2019-04-21T22:13:49.090Z,8.13
2019-04-21T22:16:14.467Z,8.00
2019-04-21T22:19:04.690Z,7.83
2019-04-21T22:21:36.444Z,8.18
2019-04-21T22:23:58.077Z,8.00
2019-04-21T22:26:23.571Z,8.50
2019-04-21T22:28:55.847Z,7.80
2019-04-21T22:31:31.558Z,7.67
2019-04-21T22:34:05.418Z,7.78
2019-04-21T22:36:44.704Z,7.87
2019-04-21T22:39:27.091Z,7.30
2019-04-21T22:41:45.625Z,6.90
2019-04-21T22:44:16.951Z,7.75
2019-04-21T22:47:00.008Z,7.65
2019-04-21T22:49:22.341Z,7.33
2019-04-21T22:51:55.546Z,7.62
2019-04-21T22:54:35.464Z,7.97
2019-04-21T22:57:07.320Z,8.20
2019-04-21T22:59:34.152Z,8.55
2019-04-21T23:02:13.764Z,8.93
2019-04-21T23:04:45.253Z,8.13
2019-04-21T23:07:16.905Z,8.23
2019-04-21T23:09:45.515Z,8.23
2019-04-21T23:12:22.770Z,9.33
2019-04-21T23:15:00.897Z,9.23
2019-04-21T23:17:42.235Z,8.95
2019-04-21T23:20:17.567Z,8.90
2019-04-21T23:22:58.494Z,9.78
2019-04-21T23:25:18.708Z,8.25
2019-04-21T23:27:53.938Z,8.70
2019-04-21T23:30:33.974Z,9.40
2019-04-21T23:32:50.219Z,9.50
2019-04-21T23:35:21.778Z,9.58
2019-04-21T23:37:55.615Z,9.33
2019-04-21T23:40:22.234Z,9.45
2019-04-21T23:42:53.316Z,9.68
2019-04-21T23:45:30.497Z,10.10
2019-04-21T23:48:15.885Z,9.80
2019-04-21T23:50:43.074Z,9.70
2019-04-21T23:53:05.616Z,9.63
2019-04-21T23:55:37.105Z,10.65
2019-04-21T23:58:16.395Z,9.93
